Time;durP1;ratioP1;P1;durP2;ratioP2;P2;SDS_P1;SDS_P2;PMS_P1;PMS_P2;Temp;Humidity;BMP_temperature;BMP_pressure;BME280_temperature;BME280_humidity;BME280_pressure;Samples;Min_cycle;Max_cycle;Signal;HPM_P1;HPM_P2
2022/08/12 00:43:16;;;;;;;1.50;0.33;;;17.70;1.00;;;;;;4992646;28;20982;-82
2022/08/12 00:48:47;;;;;;;1.00;0.20;;;17.70;1.00;;;;;;4934055;29;20975;-83
2022/08/12 00:51:13;;;;;;;0.70;0.40;;;17.60;1.00;;;;;;4984138;28;20421;-83
2022/08/12 00:53:39;;;;;;;1.03;0.47;;;17.50;1.00;;;;;;4996253;28;20424;-83
2022/08/12 00:56:06;;;;;;;0.80;0.40;;;17.60;1.00;;;;;;4996145;28;20859;-86
2022/08/12 00:58:32;;;;;;;0.87;0.33;;;17.70;1.00;;;;;;4995765;28;20550;-83
2022/08/12 01:01:07;;;;;;;0.80;0.30;;;17.70;1.00;;;;;;4995897;28;20436;-83
2022/08/12 01:12:09;;;;;;;2.00;0.60;;;17.50;1.00;;;;;;5016833;28;20505;-84
2022/08/12 01:14:36;;;;;;;0.80;0.30;;;17.40;1.00;;;;;;5014719;28;20432;-83
2022/08/12 01:17:01;;;;;;;0.70;0.50;;;17.30;1.00;;;;;;5014236;28;20477;-89
2022/08/12 01:19:27;;;;;;;1.20;0.50;;;17.20;1.00;;;;;;5014361;28;20421;-83
2022/08/12 01:22:21;;;;;;;1.30;0.30;;;17.20;1.00;;;;;;5015470;28;20652;-84
2022/08/12 01:24:49;;;;;;;2.03;0.40;;;17.10;1.00;;;;;;5015405;28;20195;-84
2022/08/12 01:27:17;;;;;;;0.80;0.20;;;17.10;1.00;;;;;;5015288;28;20432;-84
2022/08/12 01:29:44;;;;;;;0.67;0.20;;;17.00;1.00;;;;;;5015061;28;20515;-84
2022/08/12 01:32:13;;;;;;;2.17;0.20;;;17.00;19.70;;;;;;5015108;28;20459;-84
2022/08/12 01:34:52;;;;;;;0.90;0.60;;;16.90;33.70;;;;;;5013921;28;20438;-84
2022/08/12 01:37:21;;;;;;;0.87;0.33;;;16.80;55.70;;;;;;5015033;28;20486;-85
2022/08/12 01:39:52;;;;;;;0.90;0.20;;;16.70;39.20;;;;;;5015135;28;20467;-84
2022/08/12 01:42:21;;;;;;;1.43;0.33;;;16.60;54.60;;;;;;5014947;28;20479;-86
2022/08/12 01:44:52;;;;;;;1.70;0.30;;;16.60;9.00;;;;;;5015003;28;20777;-86
2022/08/12 01:47:59;;;;;;;1.63;0.20;;;16.70;99.90;;;;;;5015341;28;20400;-90
2022/08/12 01:50:35;;;;;;;1.27;0.30;;;16.60;99.90;;;;;;5015117;28;20412;-82
2022/08/12 01:53:10;;;;;;;1.27;0.30;;;16.60;90.00;;;;;;5015308;28;20513;-84
2022/08/12 01:55:41;;;;;;;1.47;0.30;;;16.60;52.10;;;;;;5015242;28;20518;-83
2022/08/12 01:58:10;;;;;;;3.23;0.40;;;16.70;50.80;;;;;;5015175;28;20920;-84
2022/08/12 02:00:47;;;;;;;2.10;0.40;;;16.70;89.20;;;;;;5014657;28;20412;-83
2022/08/12 02:03:26;;;;;;;1.20;0.40;;;16.60;98.80;;;;;;5014953;28;20411;-83
2022/08/12 02:11:55;;;;;;;1.70;0.37;;;16.50;99.90;;;;;;5014793;28;20824;-84
2022/08/12 02:14:30;;;;;;;1.23;0.20;;;16.50;48.30;;;;;;5014198;28;20494;-84
2022/08/12 02:17:04;;;;;;;1.17;0.20;;;16.50;99.90;;;;;;5013155;28;20480;-82
2022/08/12 02:20:07;;;;;;;0.80;0.20;;;16.50;99.90;;;;;;5014584;28;20411;-91
2022/08/12 02:22:38;;;;;;;1.57;0.60;;;16.40;99.90;;;;;;5014193;28;20451;-83
2022/08/12 02:25:24;;;;;;;0.87;0.47;;;16.40;99.90;;;;;;5012945;28;20775;-89
2022/08/12 02:27:52;;;;;;;1.90;0.80;;;16.40;99.90;;;;;;5014150;28;20515;-82
2022/08/12 02:30:23;;;;;;;0.60;0.20;;;16.30;99.90;;;;;;5013648;28;20908;-84
2022/08/12 02:32:52;;;;;;;0.80;0.20;;;16.30;99.90;;;;;;5012881;28;20918;-83
2022/08/12 02:35:21;;;;;;;1.00;0.20;;;16.20;99.90;;;;;;5014047;28;20460;-83
2022/08/12 02:37:50;;;;;;;0.70;0.57;;;16.20;99.90;;;;;;5014267;28;20967;-84
2022/08/12 02:40:17;;;;;;;0.43;0.20;;;16.00;99.90;;;;;;5014110;28;20411;-84
2022/08/12 02:43:03;;;;;;;2.50;0.80;;;16.00;99.90;;;;;;5013669;28;20482;-83
2022/08/12 02:45:45;;;;;;;1.10;0.40;;;15.90;99.90;;;;;;5012689;28;20510;-84
2022/08/12 02:48:17;;;;;;;1.27;0.33;;;15.90;99.90;;;;;;5013963;28;20426;-84
2022/08/12 02:50:49;;;;;;;1.07;0.27;;;15.80;99.90;;;;;;5013889;28;20415;-84
2022/08/12 02:53:17;;;;;;;0.67;0.30;;;15.80;99.90;;;;;;5013773;28;20513;-85
2022/08/12 02:55:44;;;;;;;1.47;0.50;;;15.70;99.90;;;;;;5012331;28;20422;-85
2022/08/12 02:58:11;;;;;;;1.23;0.37;;;15.70;99.90;;;;;;5013183;28;20462;-85
2022/08/12 03:00:38;;;;;;;1.20;0.40;;;15.70;99.90;;;;;;5013588;28;20441;-84
2022/08/12 03:03:07;;;;;;;1.37;0.50;;;15.70;99.90;;;;;;5013884;28;20812;-85
2022/08/12 03:05:36;;;;;;;1.40;0.40;;;15.60;99.90;;;;;;5012479;28;20454;-86
2022/08/12 03:08:08;;;;;;;1.03;0.80;;;15.60;99.90;;;;;;5011894;28;20479;-85
2022/08/12 03:10:38;;;;;;;1.40;0.40;;;15.50;99.90;;;;;;5013283;28;20414;-84
2022/08/12 03:13:05;;;;;;;0.53;0.30;;;15.50;99.90;;;;;;5011802;28;20483;-84
2022/08/12 03:15:31;;;;;;;1.07;0.37;;;15.40;99.90;;;;;;5012241;28;20924;-84
2022/08/12 03:18:09;;;;;;;2.40;0.67;;;15.30;99.90;;;;;;5013330;28;20412;-87
2022/08/12 03:20:37;;;;;;;1.37;0.40;;;15.30;99.90;;;;;;5013454;28;20423;-84
2022/08/12 03:23:05;;;;;;;1.07;0.57;;;15.30;99.90;;;;;;5013388;28;20406;-84
2022/08/12 03:25:34;;;;;;;0.80;0.30;;;15.20;99.90;;;;;;5013359;28;20412;-85
2022/08/12 03:28:02;;;;;;;1.03;0.43;;;15.20;99.90;;;;;;5011821;28;20475;-90
2022/08/12 03:30:32;;;;;;;1.90;0.93;;;15.10;99.90;;;;;;5013276;28;20407;-84
2022/08/12 03:33:00;;;;;;;1.70;0.63;;;15.10;99.90;;;;;;5012045;28;20957;-84
2022/08/12 03:35:31;;;;;;;1.30;0.30;;;15.10;99.90;;;;;;5013185;28;20763;-85
2022/08/12 03:37:58;;;;;;;1.87;0.80;;;15.10;99.90;;;;;;5012789;28;20425;-84
2022/08/12 04:02:40;;;;;;;1.57;0.50;;;14.80;99.90;;;;;;5013185;28;20433;-84
2022/08/12 04:05:09;;;;;;;1.50;0.60;;;14.80;99.90;;;;;;5012983;28;20602;-83
2022/08/12 04:07:35;;;;;;;1.33;0.70;;;14.70;99.90;;;;;;5012669;28;20466;-83
2022/08/12 04:10:01;;;;;;;1.90;0.80;;;14.70;99.90;;;;;;5012738;28;20414;-84
2022/08/12 04:15:13;;;;;;;1.27;0.57;;;14.70;99.90;;;;;;5012571;28;20410;-85
2022/08/12 04:17:40;;;;;;;2.13;0.30;;;14.70;99.90;;;;;;5012753;28;20411;-85
2022/08/12 04:20:08;;;;;;;1.97;0.60;;;14.70;99.90;;;;;;5012675;28;20417;-84
2022/08/12 04:22:34;;;;;;;1.03;0.40;;;14.70;99.90;;;;;;5013939;28;20892;-84
2022/08/12 04:25:01;;;;;;;2.10;0.47;;;14.70;99.90;;;;;;5016496;28;20406;-84
2022/08/12 04:27:30;;;;;;;0.90;0.20;;;14.70;99.90;;;;;;5016410;28;20837;-85
2022/08/12 04:29:57;;;;;;;1.43;0.30;;;14.80;99.90;;;;;;5015987;28;20420;-84
2022/08/12 04:32:23;;;;;;;2.17;0.67;;;14.70;99.90;;;;;;5015132;28;20473;-90
2022/08/12 04:34:50;;;;;;;1.27;0.40;;;14.80;99.90;;;;;;5016324;28;20404;-84
2022/08/12 04:37:15;;;;;;;1.50;0.80;;;14.80;99.90;;;;;;5016289;28;20418;-85
2022/08/12 04:39:43;;;;;;;0.77;0.30;;;14.80;99.90;;;;;;5016362;28;20763;-84
2022/08/12 04:42:08;;;;;;;1.60;0.30;;;14.80;99.90;;;;;;5016107;28;20218;-85
2022/08/12 04:44:34;;;;;;;0.80;0.20;;;14.80;99.90;;;;;;5015760;28;20476;-85
2022/08/12 04:47:00;;;;;;;2.00;0.67;;;14.90;99.90;;;;;;5015938;28;20206;-85
2022/08/12 04:49:26;;;;;;;1.47;0.50;;;14.90;99.90;;;;;;5016049;28;20175;-85
2022/08/12 04:51:52;;;;;;;1.23;0.40;;;14.90;99.90;;;;;;5016198;28;20194;-84
2022/08/12 04:54:19;;;;;;;0.70;0.30;;;15.00;99.90;;;;;;5015958;28;20907;-84
2022/08/12 04:56:44;;;;;;;2.13;0.40;;;15.00;99.90;;;;;;5015941;28;20695;-85
2022/08/12 04:59:13;;;;;;;1.13;0.60;;;15.00;99.90;;;;;;5015468;28;20513;-85
2022/08/12 05:01:39;;;;;;;2.00;0.43;;;15.10;99.90;;;;;;5015783;28;20325;-87
2022/08/12 05:04:06;;;;;;;2.20;1.53;;;15.20;99.90;;;;;;5015808;28;20505;-85
2022/08/12 05:06:33;;;;;;;2.40;0.67;;;15.20;99.90;;;;;;5015636;28;20203;-84
2022/08/12 05:08:59;;;;;;;1.27;0.30;;;15.30;99.90;;;;;;5015601;28;20817;-83
2022/08/12 05:11:25;;;;;;;2.10;0.53;;;15.40;99.90;;;;;;5015600;28;20419;-85
2022/08/12 05:13:59;;;;;;;1.50;1.00;;;15.40;99.90;;;;;;5015129;28;20517;-83
2022/08/12 05:16:25;;;;;;;1.27;0.70;;;15.70;99.90;;;;;;5015561;28;20434;-84
2022/08/12 05:18:51;;;;;;;1.40;0.73;;;15.90;99.90;;;;;;5014120;28;20438;-84
2022/08/12 05:21:16;;;;;;;2.60;1.00;;;16.00;99.90;;;;;;5015340;28;20977;-85
2022/08/12 05:23:42;;;;;;;2.13;0.57;;;16.10;99.90;;;;;;5015241;28;20185;-87
2022/08/12 05:26:08;;;;;;;0.90;0.50;;;16.20;99.90;;;;;;5015427;28;20567;-85
2022/08/12 05:28:33;;;;;;;1.13;0.50;;;16.30;99.90;;;;;;5015637;28;20185;-85
2022/08/12 05:31:00;;;;;;;1.67;0.80;;;16.30;99.90;;;;;;5016016;28;20180;-83
2022/08/12 05:33:38;;;;;;;1.80;0.50;;;16.50;99.90;;;;;;5014066;28;20652;-85
2022/08/12 05:36:06;;;;;;;1.57;0.87;;;16.70;99.90;;;;;;5015180;28;20419;-88
2022/08/12 05:41:20;;;;;;;1.07;0.60;;;17.60;94.40;;;;;;5015173;28;20465;-86
2022/08/12 05:43:48;;;;;;;1.50;0.67;;;18.50;1.00;;;;;;5014730;28;20475;-84
2022/08/12 05:46:14;;;;;;;1.97;0.60;;;19.30;1.00;;;;;;5014936;28;20956;-85
2022/08/12 05:48:40;;;;;;;1.90;0.53;;;19.70;99.90;;;;;;5013787;28;20440;-85
2022/08/12 05:51:06;;;;;;;1.30;0.37;;;19.80;99.90;;;;;;5008049;28;20178;-91
2022/08/12 05:53:32;;;;;;;1.10;0.40;;;20.30;43.20;;;;;;5013649;28;20435;-90
2022/08/12 05:55:57;;;;;;;1.10;0.40;;;20.60;99.90;;;;;;5014973;28;20498;-89
2022/08/12 05:58:23;;;;;;;2.60;0.90;;;20.90;99.90;;;;;;5013411;28;20197;-93
2022/08/12 06:00:48;;;;;;;1.37;0.70;;;21.20;1.00;;;;;;5014445;28;20210;-89
2022/08/12 06:03:16;;;;;;;2.10;0.57;;;21.40;99.90;;;;;;5013580;28;20235;-85
2022/08/12 06:05:44;;;;;;;1.23;0.67;;;21.70;1.00;;;;;;5014517;28;20161;-87
2022/08/12 06:08:10;;;;;;;1.60;0.87;;;22.10;99.90;;;;;;5014451;28;20471;-87
2022/08/12 06:10:36;;;;;;;1.37;0.30;;;22.40;99.90;;;;;;5014395;28;20455;-87
2022/08/12 06:13:06;;;;;;;1.33;0.40;;;23.00;99.90;;;;;;5013996;28;20966;-86
2022/08/12 06:15:36;;;;;;;1.03;0.40;;;23.60;99.90;;;;;;5014225;28;20703;-87
2022/08/12 06:18:10;;;;;;;1.10;0.50;;;24.10;99.90;;;;;;5014199;28;20767;-88
2022/08/12 06:20:37;;;;;;;1.17;0.50;;;24.50;99.90;;;;;;5014275;28;20421;-87
2022/08/12 06:23:03;;;;;;;1.60;1.10;;;25.20;99.90;;;;;;5014235;28;20410;-88
2022/08/12 06:25:29;;;;;;;1.07;0.47;;;26.00;20.40;;;;;;5014200;28;20421;-88
2022/08/12 06:27:58;;;;;;;1.60;0.57;;;26.40;3.50;;;;;;5013860;28;20473;-87
2022/08/12 06:30:26;;;;;;;0.80;0.43;;;26.70;1.00;;;;;;5014060;28;20421;-88
2022/08/12 06:32:52;;;;;;;0.80;0.40;;;27.70;1.00;;;;;;5012992;28;20464;-88
2022/08/12 06:35:18;;;;;;;1.03;0.47;;;28.10;1.00;;;;;;5013823;28;20457;-87
2022/08/12 06:37:47;;;;;;;2.50;1.00;;;28.40;1.00;;;;;;5014090;28;20175;-87
2022/08/12 06:40:13;;;;;;;1.60;0.67;;;28.80;1.00;;;;;;5014075;28;20922;-88
2022/08/12 06:42:51;;;;;;;1.00;0.40;;;28.40;1.00;;;;;;5013515;28;20857;-87
2022/08/12 06:45:20;;;;;;;1.37;0.53;;;28.50;1.00;;;;;;5012412;28;20516;-87
2022/08/12 06:47:47;;;;;;;0.93;0.40;;;29.00;1.00;;;;;;5020602;28;20463;-89
2022/08/12 06:50:15;;;;;;;2.30;0.40;;;28.30;1.00;;;;;;5021734;28;20433;-90
2022/08/12 06:52:44;;;;;;;1.33;0.57;;;28.20;1.00;;;;;;5019978;28;20418;-90
2022/08/12 06:55:19;;;;;;;0.90;0.40;;;28.70;1.00;;;;;;5019413;28;20422;-88
2022/08/12 06:57:55;;;;;;;1.40;0.83;;;30.00;1.00;;;;;;5019850;28;20402;-87
2022/08/12 07:00:25;;;;;;;1.50;0.60;;;29.90;1.00;;;;;;5020570;28;20467;-88
2022/08/12 07:02:54;;;;;;;1.60;0.30;;;29.90;1.00;;;;;;5022244;28;20481;-87
2022/08/12 07:05:23;;;;;;;2.50;0.57;;;29.70;1.00;;;;;;5023393;28;20418;-87
2022/08/12 07:07:57;;;;;;;1.37;0.50;;;30.30;1.00;;;;;;5026570;28;20930;-92
2022/08/12 07:10:24;;;;;;;1.20;0.63;;;30.40;1.00;;;;;;5023738;28;20481;-92
2022/08/12 07:12:53;;;;;;;2.83;0.50;;;30.60;1.00;;;;;;5025544;28;20477;-91
2022/08/12 07:15:23;;;;;;;1.30;0.80;;;30.40;1.00;;;;;;5024746;28;20414;-86
2022/08/12 07:17:59;;;;;;;1.03;0.47;;;30.50;1.00;;;;;;5026887;28;20934;-88
2022/08/12 07:20:29;;;;;;;1.20;0.60;;;30.90;1.00;;;;;;5017909;28;20457;-90
2022/08/12 07:22:55;;;;;;;1.03;0.43;;;31.10;1.00;;;;;;5026732;28;20422;-93
2022/08/12 07:25:30;;;;;;;1.50;0.70;;;31.10;1.00;;;;;;5027153;28;20871;-90
2022/08/12 07:28:02;;;;;;;1.20;0.70;;;30.50;1.00;;;;;;5008629;28;20889;-93
2022/08/12 07:30:29;;;;;;;1.20;0.50;;;30.50;1.00;;;;;;5023567;28;20430;-95
2022/08/12 07:32:55;;;;;;;1.07;0.77;;;30.80;1.00;;;;;;5027859;28;20410;-89
2022/08/12 07:35:21;;;;;;;1.30;0.70;;;30.80;1.00;;;;;;5023396;28;20804;-95
2022/08/12 07:37:49;;;;;;;1.87;1.33;;;31.00;1.00;;;;;;5027996;28;20410;-92
2022/08/12 07:40:17;;;;;;;1.40;0.70;;;31.50;1.00;;;;;;5027297;28;20429;-87
2022/08/12 07:42:43;;;;;;;2.70;0.73;;;31.40;1.00;;;;;;5029939;28;20488;-92
2022/08/12 07:45:11;;;;;;;1.43;0.87;;;31.50;1.00;;;;;;5020284;28;20545;-87
2022/08/12 07:47:36;;;;;;;1.40;0.60;;;31.80;1.00;;;;;;5027497;28;20461;-91
2022/08/12 07:50:07;;;;;;;1.17;0.90;;;31.90;1.00;;;;;;5020824;28;20430;-87
2022/08/12 07:52:40;;;;;;;0.83;0.43;;;31.70;1.00;;;;;;5021673;28;20225;-87
2022/08/12 07:55:16;;;;;;;1.20;0.53;;;32.10;1.00;;;;;;5021613;28;20422;-88
2022/08/12 07:57:57;;;;;;;1.83;0.60;;;31.90;1.00;;;;;;5024596;28;20581;-94
2022/08/12 08:00:23;;;;;;;1.07;0.50;;;32.40;1.00;;;;;;5023171;28;20410;-91
2022/08/12 08:02:53;;;;;;;1.27;0.60;;;32.50;1.00;;;;;;5030490;28;20816;-88
2022/08/12 08:05:19;;;;;;;2.00;0.60;;;32.80;1.00;;;;;;5021196;28;20764;-86
2022/08/12 08:07:45;;;;;;;1.13;0.83;;;32.50;1.00;;;;;;5030496;28;20550;-86
2022/08/12 08:10:12;;;;;;;1.53;0.87;;;32.60;1.00;;;;;;5036922;28;20410;-87
2022/08/12 08:12:53;;;;;;;0.90;0.70;;;32.90;1.00;;;;;;5039381;28;20182;-88
2022/08/12 08:15:19;;;;;;;1.90;0.90;;;33.00;1.00;;;;;;5037512;28;20422;-87
2022/08/12 08:18:01;;;;;;;1.70;1.07;;;33.40;1.00;;;;;;5031595;28;20434;-87
2022/08/12 08:20:33;;;;;;;1.40;0.70;;;33.70;1.00;;;;;;5027604;28;20426;-86
2022/08/12 08:23:04;;;;;;;1.30;0.80;;;33.60;1.00;;;;;;5026200;28;20426;-90
2022/08/12 08:25:32;;;;;;;1.10;0.70;;;33.50;1.00;;;;;;5024375;28;20422;-89
2022/08/12 08:28:01;;;;;;;2.93;0.70;;;33.80;1.00;;;;;;5035487;28;20457;-87
2022/08/12 08:30:28;;;;;;;1.33;1.00;;;33.90;1.00;;;;;;5035933;28;20436;-88
2022/08/12 08:32:55;;;;;;;1.20;0.70;;;33.60;1.00;;;;;;5035118;28;20413;-87
2022/08/12 08:35:22;;;;;;;1.13;0.77;;;33.90;1.00;;;;;;5036740;28;20432;-89
2022/08/12 08:37:51;;;;;;;2.13;0.90;;;34.30;1.00;;;;;;5024107;28;20412;-93
2022/08/12 08:43:02;;;;;;;2.13;1.50;;;34.30;1.00;;;;;;5033540;28;20396;-95
2022/08/12 08:45:31;;;;;;;1.90;1.50;;;34.50;1.00;;;;;;5033801;28;20409;-88
2022/08/12 08:47:59;;;;;;;1.70;1.10;;;34.40;1.00;;;;;;5026338;28;20175;-87
2022/08/12 08:50:25;;;;;;;1.50;0.60;;;35.00;1.00;;;;;;5030426;28;20902;-88
2022/08/12 08:52:51;;;;;;;2.10;1.20;;;34.80;1.00;;;;;;5028760;28;20413;-88
2022/08/12 08:55:17;;;;;;;1.10;0.77;;;34.90;1.00;;;;;;5028780;28;20413;-87
2022/08/12 08:57:48;;;;;;;1.60;0.70;;;34.60;1.00;;;;;;5028584;28;20233;-89
2022/08/12 09:00:19;;;;;;;1.30;1.13;;;34.70;1.00;;;;;;5021767;28;20175;-91
2022/08/12 09:02:58;;;;;;;1.70;0.70;;;33.70;1.00;;;;;;5023417;28;20406;-92
2022/08/12 09:05:23;;;;;;;1.83;0.63;;;34.60;1.00;;;;;;5026255;28;20414;-86
2022/08/12 09:07:49;;;;;;;1.10;0.63;;;34.70;1.00;;;;;;5028410;28;20493;-86
2022/08/12 09:10:18;;;;;;;1.23;1.10;;;34.60;1.00;;;;;;5026472;28;20251;-86
2022/08/12 09:15:37;;;;;;;1.83;1.10;;;35.00;1.00;;;;;;5029482;28;20421;-86
2022/08/12 09:20:34;;;;;;;2.00;1.10;;;35.40;1.00;;;;;;5008164;22;20482;-88
2022/08/12 09:23:04;;;;;;;1.27;1.17;;;35.00;1.00;;;;;;5005207;28;20427;-86
2022/08/12 09:25:30;;;;;;;1.00;0.90;;;35.00;1.00;;;;;;5006399;28;20449;-88
2022/08/12 09:27:57;;;;;;;1.70;1.30;;;35.40;1.00;;;;;;5006431;28;20419;-86
2022/08/12 09:30:33;;;;;;;1.70;1.33;;;36.10;1.00;;;;;;5004718;28;20422;-86
2022/08/12 09:32:59;;;;;;;1.17;0.90;;;36.20;1.00;;;;;;5007978;28;20419;-86
2022/08/12 09:35:30;;;;;;;1.00;0.70;;;36.10;1.00;;;;;;5002028;28;20425;-86
2022/08/12 09:38:16;;;;;;;1.10;1.00;;;36.10;1.00;;;;;;5003699;28;20265;-86
2022/08/12 09:40:46;;;;;;;2.47;1.40;;;36.10;1.00;;;;;;5008623;28;20486;-86
2022/08/12 09:46:01;;;;;;;1.50;0.87;;;36.20;1.00;;;;;;5008012;28;20417;-86
2022/08/12 09:48:37;;;;;;;1.37;0.90;;;36.80;1.00;;;;;;5002080;28;21013;-85
2022/08/12 09:51:07;;;;;;;1.43;1.33;;;36.40;1.00;;;;;;5000788;28;20418;-86
2022/08/12 09:53:33;;;;;;;1.60;1.47;;;37.20;1.00;;;;;;5003258;28;20410;-90
2022/08/12 09:55:59;;;;;;;1.30;0.90;;;37.00;1.00;;;;;;5000944;28;20438;-89
2022/08/12 09:58:28;;;;;;;1.37;1.20;;;36.20;1.00;;;;;;5001991;28;20417;-87
2022/08/12 10:01:03;;;;;;;2.27;1.07;;;36.50;1.00;;;;;;5020273;28;20161;-88
2022/08/12 10:03:33;;;;;;;3.27;1.47;;;36.50;1.00;;;;;;5021095;28;20465;-89
2022/08/12 10:06:00;;;;;;;1.20;1.10;;;37.20;1.00;;;;;;5012208;28;20407;-87
2022/08/12 10:08:29;;;;;;;1.00;1.00;;;37.70;1.00;;;;;;5006735;28;20426;-89
2022/08/12 10:13:48;;;;;;;1.37;1.00;;;36.50;1.00;;;;;;4996592;28;20438;-94
2022/08/12 10:16:16;;;;;;;1.00;0.87;;;36.50;1.00;;;;;;4999587;28;20505;-95
2022/08/12 10:19:05;;;;;;;1.50;1.30;;;36.80;1.00;;;;;;4996984;28;20458;-87
2022/08/12 10:21:36;;;;;;;1.13;1.13;;;36.70;1.00;;;;;;4997919;28;20494;-88
2022/08/12 10:24:07;;;;;;;1.17;1.07;;;37.30;1.00;;;;;;4990490;28;20521;-86
2022/08/12 10:29:37;;;;;;;1.60;1.50;;;37.00;1.00;;;;;;4991344;28;20434;-87
2022/08/12 10:32:05;;;;;;;1.37;1.20;;;37.10;1.00;;;;;;4986072;28;20567;-89
2022/08/12 10:34:31;;;;;;;1.27;1.10;;;37.00;1.00;;;;;;4985358;28;20415;-86
2022/08/12 10:36:59;;;;;;;1.47;1.10;;;37.10;1.00;;;;;;4995067;28;20831;-87
2022/08/12 10:39:32;;;;;;;2.17;1.33;;;37.10;1.00;;;;;;4990589;28;20422;-88
2022/08/12 10:44:45;;;;;;;1.53;1.43;;;37.20;1.00;;;;;;4989359;28;20397;-86
2022/08/12 10:47:11;;;;;;;0.97;0.80;;;37.40;1.00;;;;;;4990431;28;20781;-87
2022/08/12 10:49:36;;;;;;;1.13;0.90;;;36.70;1.00;;;;;;4994411;28;20462;-89
2022/08/12 10:52:05;;;;;;;1.07;0.97;;;36.60;1.00;;;;;;4990085;28;20187;-86
2022/08/12 10:54:31;;;;;;;1.93;1.20;;;37.00;1.00;;;;;;4995766;28;20171;-87
2022/08/12 10:56:59;;;;;;;0.87;0.87;;;36.90;1.00;;;;;;4991858;28;20497;-87
2022/08/12 10:59:28;;;;;;;1.43;1.33;;;37.10;1.00;;;;;;4988814;28;20176;-87
2022/08/12 11:01:55;;;;;;;1.30;1.20;;;37.20;1.00;;;;;;4994659;28;20438;-90
2022/08/12 11:04:21;;;;;;;1.67;1.40;;;37.20;1.00;;;;;;4991578;28;20426;-89
2022/08/12 11:06:47;;;;;;;1.00;0.93;;;36.60;1.00;;;;;;4994863;28;20440;-87
2022/08/12 11:09:17;;;;;;;1.97;1.47;;;35.90;1.00;;;;;;4992787;28;20454;-90
2022/08/12 11:11:46;;;;;;;1.03;0.83;;;36.50;1.00;;;;;;5001235;28;20425;-86
2022/08/12 11:14:11;;;;;;;1.03;0.73;;;36.30;1.00;;;;;;5006258;28;20414;-89
2022/08/12 11:16:37;;;;;;;1.43;0.80;;;35.60;1.00;;;;;;5002857;28;20477;-91
2022/08/12 11:19:06;;;;;;;1.43;0.70;;;35.60;1.00;;;;;;5005455;28;20246;-92
2022/08/12 11:21:31;;;;;;;0.70;0.57;;;35.60;1.00;;;;;;5000625;28;20221;-89
2022/08/12 11:24:00;;;;;;;1.33;0.70;;;35.90;1.00;;;;;;5002608;28;20411;-90
2022/08/12 11:26:25;;;;;;;1.57;1.10;;;36.00;1.00;;;;;;5003157;28;20167;-86
2022/08/12 11:28:51;;;;;;;0.63;0.63;;;36.60;1.00;;;;;;5000869;28;20414;-85
2022/08/12 11:31:16;;;;;;;0.90;0.70;;;36.40;1.00;;;;;;5002727;28;20183;-88
2022/08/12 11:33:43;;;;;;;0.90;0.90;;;36.70;1.00;;;;;;4999651;28;20175;-86
2022/08/12 11:36:08;;;;;;;1.30;1.17;;;36.70;1.00;;;;;;5000170;28;20421;-91
2022/08/12 11:38:34;;;;;;;1.63;1.20;;;36.00;1.00;;;;;;4998373;28;20229;-89
2022/08/12 11:41:03;;;;;;;0.93;0.87;;;35.50;1.00;;;;;;4995115;28;20408;-87
2022/08/12 11:43:29;;;;;;;1.13;1.10;;;36.20;1.00;;;;;;4991250;28;20179;-87
2022/08/12 11:45:55;;;;;;;1.23;1.13;;;36.70;1.00;;;;;;4989700;28;20955;-85
2022/08/12 11:48:20;;;;;;;1.00;0.87;;;36.80;1.00;;;;;;4989723;28;20179;-86
2022/08/12 11:50:46;;;;;;;1.00;1.00;;;36.90;1.00;;;;;;4988867;28;20536;-86
2022/08/12 11:53:24;;;;;;;1.47;1.37;;;36.90;1.00;;;;;;4988821;28;20171;-86
2022/08/12 11:55:49;;;;;;;1.30;1.20;;;37.20;1.00;;;;;;4987067;28;20197;-87
2022/08/12 11:58:15;;;;;;;1.33;1.30;;;37.30;1.00;;;;;;4987573;28;20469;-84
2022/08/12 12:00:40;;;;;;;1.50;1.40;;;36.90;1.00;;;;;;5084628;23;20241;-85
2022/08/12 12:03:06;;;;;;;2.30;1.63;;;36.80;1.00;;;;;;5019156;23;20241;-86
2022/08/12 12:05:31;;;;;;;1.90;1.67;;;36.90;1.00;;;;;;5116435;23;20296;-86
2022/08/12 12:07:57;;;;;;;2.05;1.95;;;36.90;1.00;;;;;;5009237;28;20202;-86
2022/08/12 12:10:24;;;;;;;3.08;1.73;;;36.70;1.00;;;;;;5008854;28;20194;-87
2022/08/12 12:13:04;;;;;;;1.58;1.48;;;36.80;1.00;;;;;;5004443;28;20178;-87
2022/08/12 12:15:29;;;;;;;1.90;1.80;;;37.10;1.00;;;;;;5007759;28;20171;-86
2022/08/12 12:17:55;;;;;;;1.75;1.65;;;37.10;1.00;;;;;;5005025;28;20206;-90
2022/08/12 12:20:20;;;;;;;2.15;1.48;;;37.10;1.00;;;;;;5001404;28;20191;-89
2022/08/12 12:22:46;;;;;;;2.10;1.13;;;36.80;1.00;;;;;;5001530;28;20167;-92
2022/08/12 12:25:16;;;;;;;1.17;1.07;;;36.10;1.00;;;;;;5001448;28;20179;-88
2022/08/12 12:27:51;;;;;;;1.40;0.80;;;36.00;1.00;;;;;;4997865;28;20183;-87
2022/08/12 12:30:18;;;;;;;1.13;1.03;;;35.60;1.00;;;;;;4996964;28;20422;-87
2022/08/12 12:32:44;;;;;;;1.00;1.00;;;36.60;1.00;;;;;;4999227;28;20415;-86
2022/08/12 12:35:10;;;;;;;1.23;1.13;;;36.70;1.00;;;;;;4998943;28;20414;-89
2022/08/12 12:37:49;;;;;;;1.37;1.27;;;36.80;1.00;;;;;;4992699;28;20213;-88
2022/08/12 12:40:16;;;;;;;1.00;0.90;;;36.90;1.00;;;;;;4991145;28;20179;-92
2022/08/12 12:42:41;;;;;;;1.17;0.90;;;35.60;1.00;;;;;;4994185;28;20469;-89
2022/08/12 12:45:07;;;;;;;1.33;0.87;;;36.30;1.00;;;;;;4996768;28;20454;-88
2022/08/12 12:47:33;;;;;;;0.80;0.73;;;35.80;1.00;;;;;;4997472;28;20163;-88
2022/08/12 12:49:58;;;;;;;1.20;0.83;;;35.50;1.00;;;;;;4997228;28;20453;-88
2022/08/12 12:52:24;;;;;;;1.67;0.60;;;35.60;1.00;;;;;;4996469;28;20539;-88
2022/08/12 12:54:54;;;;;;;0.80;0.80;;;36.20;1.00;;;;;;4995679;28;20254;-85
2022/08/12 12:57:20;;;;;;;1.40;0.80;;;36.10;1.00;;;;;;4994745;28;20209;-85
2022/08/12 13:00:13;;;;;;;1.40;1.00;;;36.00;1.00;;;;;;4995225;28;20415;-85
2022/08/12 13:02:31;;;;;;;1.40;1.00;;;36.30;1.00;;;;;;4998115;28;20415;-91
2022/08/12 13:04:58;;;;;;;1.30;1.20;;;36.10;1.00;;;;;;4995910;28;20434;-85
2022/08/12 13:07:25;;;;;;;1.03;1.03;;;36.40;1.00;;;;;;4998141;28;20222;-87
2022/08/12 13:09:50;;;;;;;0.70;0.70;;;36.30;1.00;;;;;;4997508;28;20783;-86
2022/08/12 13:12:16;;;;;;;1.40;0.90;;;35.80;1.00;;;;;;4996886;28;20418;-84
2022/08/12 13:14:42;;;;;;;0.83;0.60;;;36.10;1.00;;;;;;4998733;28;20585;-86
2022/08/12 13:17:11;;;;;;;0.67;0.67;;;35.50;1.00;;;;;;4997764;28;20470;-87
2022/08/12 13:19:37;;;;;;;0.50;0.40;;;35.30;1.00;;;;;;4998315;28;20266;-87
2022/08/12 13:22:19;;;;;;;0.63;0.53;;;35.40;1.00;;;;;;4999989;28;20458;-87
2022/08/12 13:24:46;;;;;;;0.93;0.47;;;35.20;1.00;;;;;;4999159;28;20294;-88
2022/08/12 13:27:11;;;;;;;2.50;0.70;;;34.90;1.00;;;;;;4997414;28;20882;-84
2022/08/12 13:29:37;;;;;;;1.10;0.90;;;35.00;1.00;;;;;;4997694;28;20411;-88
2022/08/12 13:32:04;;;;;;;1.07;0.80;;;35.60;1.00;;;;;;4997654;28;20262;-87
2022/08/12 13:34:31;;;;;;;0.70;0.40;;;34.30;1.00;;;;;;4996267;28;20178;-88
2022/08/12 13:36:57;;;;;;;0.90;0.67;;;34.60;1.00;;;;;;4995946;28;20814;-85
2022/08/12 13:39:22;;;;;;;1.37;0.70;;;34.00;1.00;;;;;;4993802;28;20433;-87
2022/08/12 13:41:48;;;;;;;1.03;0.60;;;34.10;1.00;;;;;;4995854;28;20171;-86
2022/08/12 13:44:14;;;;;;;0.77;0.43;;;33.60;1.00;;;;;;4995231;28;20171;-87
2022/08/12 13:46:40;;;;;;;1.00;0.80;;;33.70;1.00;;;;;;4995698;28;20849;-88
2022/08/12 13:49:10;;;;;;;1.87;0.50;;;33.60;1.00;;;;;;4996830;28;20171;-91
2022/08/12 13:51:39;;;;;;;0.93;0.60;;;33.50;1.00;;;;;;4995228;28;20430;-89
2022/08/12 13:54:04;;;;;;;1.67;0.67;;;33.30;1.00;;;;;;4998643;28;20422;-93
2022/08/12 13:56:32;;;;;;;1.17;0.50;;;32.60;1.00;;;;;;4994849;28;20537;-87
2022/08/12 13:59:04;;;;;;;2.80;0.50;;;32.60;1.00;;;;;;4994416;28;20178;-86
2022/08/12 14:01:29;;;;;;;1.30;0.40;;;32.40;1.00;;;;;;4994063;28;20415;-88
2022/08/12 14:03:58;;;;;;;0.93;0.20;;;32.80;1.00;;;;;;4992856;28;20545;-85
2022/08/12 14:06:23;;;;;;;2.80;0.50;;;32.90;1.00;;;;;;4993728;28;20222;-87
2022/08/12 14:08:49;;;;;;;1.27;0.20;;;33.00;1.00;;;;;;4993723;28;20770;-85
2022/08/12 14:11:15;;;;;;;1.30;0.57;;;33.20;1.00;;;;;;4995361;28;20207;-85
2022/08/12 14:13:41;;;;;;;0.73;0.40;;;32.60;1.00;;;;;;4994137;28;20172;-85
2022/08/12 14:16:12;;;;;;;0.80;0.30;;;33.30;1.00;;;;;;5001532;28;20180;-87
2022/08/12 14:18:38;;;;;;;1.60;0.40;;;32.70;1.00;;;;;;5003298;28;20791;-86
2022/08/12 14:21:11;;;;;;;0.50;0.20;;;32.30;1.00;;;;;;5006184;28;20454;-86
2022/08/12 14:23:40;;;;;;;0.70;0.30;;;32.30;1.00;;;;;;5002967;28;21001;-89
2022/08/12 14:26:07;;;;;;;0.70;0.30;;;32.60;1.00;;;;;;4999756;28;20442;-88
2022/08/12 14:28:34;;;;;;;0.83;0.30;;;31.90;1.00;;;;;;4995968;28;20426;-90
2022/08/12 14:31:09;;;;;;;0.80;0.30;;;31.90;1.00;;;;;;4996250;28;20418;-86
2022/08/12 14:33:40;;;;;;;3.53;0.50;;;32.10;1.00;;;;;;4997687;28;20403;-89
2022/08/12 14:36:10;;;;;;;0.60;0.30;;;32.20;1.00;;;;;;4995183;28;20818;-86
2022/08/12 14:38:39;;;;;;;1.70;0.70;;;32.40;1.00;;;;;;4994743;28;20429;-89
2022/08/12 14:41:08;;;;;;;1.10;0.50;;;32.10;1.00;;;;;;4995995;28;20421;-89
2022/08/12 14:43:37;;;;;;;1.00;0.53;;;31.70;1.00;;;;;;4995298;28;20505;-90
2022/08/12 14:46:11;;;;;;;1.70;0.40;;;32.00;1.00;;;;;;4994963;28;20443;-89
2022/08/12 14:48:42;;;;;;;1.10;0.40;;;32.10;1.00;;;;;;4994177;28;20414;-89